Red Lake, Canada
Current Conditions -  °F | °C
As of 3:00 PM on Thursday 23 Oct 2014 (Local Time) from CYRL Reporting Station
Overcast Overcast  
Wind Chill: 54°   Ceiling: 3800
Heat Index: 54°   Visibility: 15mi
Dew Point: 46°   Wind: 7mph
Humidity: 77%   Direction: 220°SW
Pressure: 29.76"   Gusts: NA
Location:  51.09°N, 93.97°W
Report Text: CYRL 232000Z 22006KT 15SM SCT015 BKN038 OVC100 12/08 A2976 RMK SC4SC2AC2 SLP086 DENSITY ALT 1300FT
Loading
Personal Weather Stations






























Interactive Weather Map
Tropical Storm Tracking
New forecast layout! Learn more

10-Day Weather Forecast

Advertisements
Track Severe Weather on mobile